sensor_id;sensor_type;location;lat;lon;timestamp;P1;durP1;ratioP1;P2;durP2;ratioP2
1507;SDS011;745;48.586;10.032;2023-02-15T00:00:10;16.30;;;12.07;;
1507;SDS011;745;48.586;10.032;2023-02-15T00:04:41;15.50;;;11.40;;
1507;SDS011;745;48.586;10.032;2023-02-15T00:09:18;17.80;;;12.10;;
1507;SDS011;745;48.586;10.032;2023-02-15T00:13:48;15.80;;;11.40;;
1507;SDS011;745;48.586;10.032;2023-02-15T00:18:19;19.80;;;13.63;;
1507;SDS011;745;48.586;10.032;2023-02-15T00:22:49;18.13;;;12.23;;
1507;SDS011;745;48.586;10.032;2023-02-15T00:27:20;17.67;;;13.13;;
1507;SDS011;745;48.586;10.032;2023-02-15T00:31:50;17.80;;;12.80;;
1507;SDS011;745;48.586;10.032;2023-02-15T00:36:22;17.30;;;12.07;;
1507;SDS011;745;48.586;10.032;2023-02-15T00:40:55;16.77;;;11.77;;
1507;SDS011;745;48.586;10.032;2023-02-15T00:45:26;14.50;;;11.03;;
1507;SDS011;745;48.586;10.032;2023-02-15T00:49:57;15.83;;;11.07;;
1507;SDS011;745;48.586;10.032;2023-02-15T00:54:27;16.37;;;12.27;;
1507;SDS011;745;48.586;10.032;2023-02-15T00:58:57;17.87;;;11.67;;
1507;SDS011;745;48.586;10.032;2023-02-15T01:03:28;15.33;;;10.60;;
1507;SDS011;745;48.586;10.032;2023-02-15T01:07:58;18.07;;;12.90;;
1507;SDS011;745;48.586;10.032;2023-02-15T01:12:29;19.57;;;13.03;;
1507;SDS011;745;48.586;10.032;2023-02-15T01:16:59;17.30;;;12.43;;
1507;SDS011;745;48.586;10.032;2023-02-15T01:21:30;16.97;;;11.83;;
1507;SDS011;745;48.586;10.032;2023-02-15T01:26:03;16.40;;;11.73;;
1507;SDS011;745;48.586;10.032;2023-02-15T01:30:34;15.50;;;12.03;;
1507;SDS011;745;48.586;10.032;2023-02-15T01:35:04;17.03;;;12.30;;
1507;SDS011;745;48.586;10.032;2023-02-15T01:39:35;15.80;;;11.10;;
1507;SDS011;745;48.586;10.032;2023-02-15T01:49:14;16.50;;;11.20;;
1507;SDS011;745;48.586;10.032;2023-02-15T01:53:51;17.87;;;12.50;;
1507;SDS011;745;48.586;10.032;2023-02-15T01:58:23;15.80;;;11.50;;
1507;SDS011;745;48.586;10.032;2023-02-15T02:02:55;18.03;;;12.90;;
1507;SDS011;745;48.586;10.032;2023-02-15T02:07:27;17.40;;;12.73;;
1507;SDS011;745;48.586;10.032;2023-02-15T02:11:59;17.53;;;12.40;;
1507;SDS011;745;48.586;10.032;2023-02-15T02:41:16;16.80;;;12.07;;
1507;SDS011;745;48.586;10.032;2023-02-15T02:46:01;17.30;;;12.27;;
1507;SDS011;745;48.586;10.032;2023-02-15T02:50:33;17.10;;;11.33;;
1507;SDS011;745;48.586;10.032;2023-02-15T02:55:05;16.90;;;12.30;;
1507;SDS011;745;48.586;10.032;2023-02-15T02:59:40;17.77;;;12.20;;
1507;SDS011;745;48.586;10.032;2023-02-15T03:04:16;14.80;;;10.57;;
1507;SDS011;745;48.586;10.032;2023-02-15T03:08:51;14.33;;;10.80;;
1507;SDS011;745;48.586;10.032;2023-02-15T03:13:26;15.23;;;10.67;;
1507;SDS011;745;48.586;10.032;2023-02-15T03:17:57;16.90;;;11.60;;
1507;SDS011;745;48.586;10.032;2023-02-15T03:22:36;17.27;;;11.47;;
1507;SDS011;745;48.586;10.032;2023-02-15T03:27:16;14.07;;;10.63;;
1507;SDS011;745;48.586;10.032;2023-02-15T03:31:50;12.60;;;9.60;;
1507;SDS011;745;48.586;10.032;2023-02-15T03:41:01;14.03;;;10.50;;
1507;SDS011;745;48.586;10.032;2023-02-15T03:45:42;14.07;;;10.43;;
1507;SDS011;745;48.586;10.032;2023-02-15T03:50:26;12.80;;;9.97;;
1507;SDS011;745;48.586;10.032;2023-02-15T03:55:16;12.53;;;9.57;;
1507;SDS011;745;48.586;10.032;2023-02-15T03:59:46;12.10;;;9.40;;
1507;SDS011;745;48.586;10.032;2023-02-15T04:04:37;12.50;;;9.73;;
1507;SDS011;745;48.586;10.032;2023-02-15T04:09:08;13.50;;;9.70;;
1507;SDS011;745;48.586;10.032;2023-02-15T04:13:57;14.53;;;10.63;;
1507;SDS011;745;48.586;10.032;2023-02-15T04:18:32;14.47;;;11.23;;
1507;SDS011;745;48.586;10.032;2023-02-15T04:23:25;12.33;;;9.03;;
1507;SDS011;745;48.586;10.032;2023-02-15T04:28:13;13.60;;;9.60;;
1507;SDS011;745;48.586;10.032;2023-02-15T04:32:44;12.20;;;10.13;;
1507;SDS011;745;48.586;10.032;2023-02-15T04:37:16;13.73;;;9.90;;
1507;SDS011;745;48.586;10.032;2023-02-15T04:41:46;14.70;;;11.00;;
1507;SDS011;745;48.586;10.032;2023-02-15T04:46:17;17.20;;;12.90;;
1507;SDS011;745;48.586;10.032;2023-02-15T04:50:48;17.60;;;12.50;;
1507;SDS011;745;48.586;10.032;2023-02-15T04:55:18;17.57;;;11.50;;
1507;SDS011;745;48.586;10.032;2023-02-15T04:59:49;20.20;;;14.80;;
1507;SDS011;745;48.586;10.032;2023-02-15T05:04:19;20.27;;;13.23;;
1507;SDS011;745;48.586;10.032;2023-02-15T05:08:49;18.00;;;12.70;;
1507;SDS011;745;48.586;10.032;2023-02-15T05:13:20;17.13;;;12.03;;
1507;SDS011;745;48.586;10.032;2023-02-15T05:17:50;14.03;;;10.90;;
1507;SDS011;745;48.586;10.032;2023-02-15T05:22:21;14.67;;;11.10;;
1507;SDS011;745;48.586;10.032;2023-02-15T05:26:51;18.77;;;13.60;;
1507;SDS011;745;48.586;10.032;2023-02-15T05:31:40;19.30;;;12.73;;
1507;SDS011;745;48.586;10.032;2023-02-15T05:36:11;18.57;;;12.80;;
1507;SDS011;745;48.586;10.032;2023-02-15T05:40:42;22.03;;;15.70;;
1507;SDS011;745;48.586;10.032;2023-02-15T05:45:13;28.33;;;17.07;;
1507;SDS011;745;48.586;10.032;2023-02-15T05:49:43;25.00;;;16.27;;
1507;SDS011;745;48.586;10.032;2023-02-15T05:54:14;22.73;;;15.33;;
1507;SDS011;745;48.586;10.032;2023-02-15T05:58:44;26.63;;;15.70;;
1507;SDS011;745;48.586;10.032;2023-02-15T06:03:15;25.23;;;17.07;;
1507;SDS011;745;48.586;10.032;2023-02-15T06:07:45;39.23;;;21.70;;
1507;SDS011;745;48.586;10.032;2023-02-15T06:12:15;27.70;;;17.50;;
1507;SDS011;745;48.586;10.032;2023-02-15T06:16:46;33.17;;;18.47;;
1507;SDS011;745;48.586;10.032;2023-02-15T06:21:16;29.27;;;18.53;;
1507;SDS011;745;48.586;10.032;2023-02-15T06:25:47;27.70;;;16.90;;
1507;SDS011;745;48.586;10.032;2023-02-15T06:30:17;26.73;;;16.13;;
1507;SDS011;745;48.586;10.032;2023-02-15T06:34:48;22.90;;;15.37;;
1507;SDS011;745;48.586;10.032;2023-02-15T06:39:18;27.23;;;16.77;;
1507;SDS011;745;48.586;10.032;2023-02-15T06:43:49;25.90;;;14.50;;
1507;SDS011;745;48.586;10.032;2023-02-15T06:48:19;26.03;;;14.93;;
1507;SDS011;745;48.586;10.032;2023-02-15T06:52:55;27.40;;;15.77;;
1507;SDS011;745;48.586;10.032;2023-02-15T06:57:26;29.93;;;17.60;;
1507;SDS011;745;48.586;10.032;2023-02-15T07:01:56;28.40;;;17.00;;
1507;SDS011;745;48.586;10.032;2023-02-15T07:06:30;34.23;;;19.73;;
1507;SDS011;745;48.586;10.032;2023-02-15T07:11:01;27.17;;;15.87;;
1507;SDS011;745;48.586;10.032;2023-02-15T07:15:50;34.07;;;18.57;;
1507;SDS011;745;48.586;10.032;2023-02-15T07:20:21;29.50;;;17.90;;
1507;SDS011;745;48.586;10.032;2023-02-15T07:24:52;26.27;;;15.53;;
1507;SDS011;745;48.586;10.032;2023-02-15T07:29:24;26.00;;;15.93;;
1507;SDS011;745;48.586;10.032;2023-02-15T07:33:55;22.63;;;16.00;;
1507;SDS011;745;48.586;10.032;2023-02-15T07:38:25;22.50;;;15.40;;
1507;SDS011;745;48.586;10.032;2023-02-15T07:42:57;21.33;;;14.10;;
1507;SDS011;745;48.586;10.032;2023-02-15T07:47:28;20.57;;;14.70;;
1507;SDS011;745;48.586;10.032;2023-02-15T07:52:00;19.57;;;14.70;;
1507;SDS011;745;48.586;10.032;2023-02-15T07:56:31;19.03;;;14.57;;
1507;SDS011;745;48.586;10.032;2023-02-15T08:01:02;18.13;;;13.90;;
1507;SDS011;745;48.586;10.032;2023-02-15T08:05:34;17.27;;;13.60;;
1507;SDS011;745;48.586;10.032;2023-02-15T08:10:05;17.60;;;13.30;;
1507;SDS011;745;48.586;10.032;2023-02-15T08:14:36;16.30;;;12.20;;
1507;SDS011;745;48.586;10.032;2023-02-15T08:19:07;19.90;;;15.23;;
1507;SDS011;745;48.586;10.032;2023-02-15T08:23:42;17.07;;;12.27;;
1507;SDS011;745;48.586;10.032;2023-02-15T08:28:12;15.43;;;11.60;;
1507;SDS011;745;48.586;10.032;2023-02-15T08:32:43;16.00;;;12.00;;
1507;SDS011;745;48.586;10.032;2023-02-15T08:37:13;15.03;;;12.23;;
1507;SDS011;745;48.586;10.032;2023-02-15T08:41:44;12.87;;;10.07;;
1507;SDS011;745;48.586;10.032;2023-02-15T08:46:15;15.30;;;11.80;;
1507;SDS011;745;48.586;10.032;2023-02-15T08:50:46;15.13;;;11.50;;
1507;SDS011;745;48.586;10.032;2023-02-15T08:55:17;16.10;;;12.10;;
1507;SDS011;745;48.586;10.032;2023-02-15T08:59:47;15.27;;;11.43;;
1507;SDS011;745;48.586;10.032;2023-02-15T09:04:18;16.63;;;12.37;;
1507;SDS011;745;48.586;10.032;2023-02-15T09:08:49;15.17;;;11.70;;
1507;SDS011;745;48.586;10.032;2023-02-15T09:13:20;16.00;;;12.40;;
1507;SDS011;745;48.586;10.032;2023-02-15T09:17:51;15.87;;;11.53;;
1507;SDS011;745;48.586;10.032;2023-02-15T09:22:21;16.97;;;12.73;;
1507;SDS011;745;48.586;10.032;2023-02-15T09:26:51;16.60;;;12.33;;
1507;SDS011;745;48.586;10.032;2023-02-15T09:31:26;16.00;;;11.47;;
1507;SDS011;745;48.586;10.032;2023-02-15T09:35:58;14.90;;;11.80;;
1507;SDS011;745;48.586;10.032;2023-02-15T09:40:29;14.40;;;11.50;;
1507;SDS011;745;48.586;10.032;2023-02-15T09:59:18;17.53;;;12.30;;
1507;SDS011;745;48.586;10.032;2023-02-15T10:03:53;16.77;;;12.50;;
1507;SDS011;745;48.586;10.032;2023-02-15T10:08:39;18.90;;;13.90;;
1507;SDS011;745;48.586;10.032;2023-02-15T10:13:27;21.87;;;14.97;;
1507;SDS011;745;48.586;10.032;2023-02-15T10:18:09;18.20;;;13.70;;
1507;SDS011;745;48.586;10.032;2023-02-15T10:27:35;22.07;;;14.77;;
1507;SDS011;745;48.586;10.032;2023-02-15T10:32:22;18.70;;;14.00;;
1507;SDS011;745;48.586;10.032;2023-02-15T10:42:02;21.23;;;15.03;;
1507;SDS011;745;48.586;10.032;2023-02-15T10:51:40;18.83;;;13.97;;
1507;SDS011;745;48.586;10.032;2023-02-15T10:56:48;24.53;;;16.43;;
1507;SDS011;745;48.586;10.032;2023-02-15T11:06:12;24.77;;;17.00;;
1507;SDS011;745;48.586;10.032;2023-02-15T11:10:46;31.93;;;19.87;;
1507;SDS011;745;48.586;10.032;2023-02-15T11:15:26;34.00;;;20.80;;
1507;SDS011;745;48.586;10.032;2023-02-15T11:20:18;31.20;;;20.23;;
1507;SDS011;745;48.586;10.032;2023-02-15T11:24:51;29.73;;;19.73;;
1507;SDS011;745;48.586;10.032;2023-02-15T11:29:23;30.47;;;19.80;;
1507;SDS011;745;48.586;10.032;2023-02-15T11:33:57;38.50;;;24.27;;
1507;SDS011;745;48.586;10.032;2023-02-15T11:38:31;31.83;;;21.87;;
1507;SDS011;745;48.586;10.032;2023-02-15T11:43:06;30.30;;;21.40;;
1507;SDS011;745;48.586;10.032;2023-02-15T11:47:43;27.50;;;18.33;;
1507;SDS011;745;48.586;10.032;2023-02-15T11:52:14;26.50;;;17.50;;
1507;SDS011;745;48.586;10.032;2023-02-15T11:56:46;23.60;;;17.07;;
1507;SDS011;745;48.586;10.032;2023-02-15T12:01:41;29.00;;;20.30;;
1507;SDS011;745;48.586;10.032;2023-02-15T12:06:30;31.80;;;20.13;;
1507;SDS011;745;48.586;10.032;2023-02-15T12:11:11;31.07;;;20.90;;
1507;SDS011;745;48.586;10.032;2023-02-15T12:15:50;27.93;;;19.23;;
1507;SDS011;745;48.586;10.032;2023-02-15T12:20:24;28.00;;;17.73;;
1507;SDS011;745;48.586;10.032;2023-02-15T12:24:59;29.37;;;19.60;;
1507;SDS011;745;48.586;10.032;2023-02-15T12:29:41;28.73;;;19.60;;
1507;SDS011;745;48.586;10.032;2023-02-15T12:34:23;27.70;;;18.23;;
1507;SDS011;745;48.586;10.032;2023-02-15T12:39:14;28.17;;;19.33;;
1507;SDS011;745;48.586;10.032;2023-02-15T12:43:47;26.90;;;18.63;;
1507;SDS011;745;48.586;10.032;2023-02-15T12:48:34;31.23;;;19.37;;
1507;SDS011;745;48.586;10.032;2023-02-15T12:58:05;32.10;;;20.77;;
1507;SDS011;745;48.586;10.032;2023-02-15T13:02:46;29.63;;;20.10;;
1507;SDS011;745;48.586;10.032;2023-02-15T13:07:19;27.10;;;17.60;;
1507;SDS011;745;48.586;10.032;2023-02-15T13:11:50;31.97;;;21.87;;
1507;SDS011;745;48.586;10.032;2023-02-15T13:16:24;34.30;;;23.10;;
1507;SDS011;745;48.586;10.032;2023-02-15T13:21:09;29.47;;;19.67;;
1507;SDS011;745;48.586;10.032;2023-02-15T13:25:45;30.80;;;19.33;;
1507;SDS011;745;48.586;10.032;2023-02-15T13:30:22;35.63;;;22.70;;
1507;SDS011;745;48.586;10.032;2023-02-15T13:34:59;40.80;;;26.57;;
1507;SDS011;745;48.586;10.032;2023-02-15T13:44:24;26.90;;;20.03;;
1507;SDS011;745;48.586;10.032;2023-02-15T14:09:06;30.30;;;20.20;;
1507;SDS011;745;48.586;10.032;2023-02-15T14:13:55;31.70;;;20.37;;
1507;SDS011;745;48.586;10.032;2023-02-15T14:28:19;28.63;;;20.13;;
1507;SDS011;745;48.586;10.032;2023-02-15T14:33:01;22.90;;;16.90;;
1507;SDS011;745;48.586;10.032;2023-02-15T14:47:14;25.77;;;17.70;;
1507;SDS011;745;48.586;10.032;2023-02-15T14:56:20;21.60;;;16.03;;
1507;SDS011;745;48.586;10.032;2023-02-15T15:00:52;24.87;;;18.00;;
1507;SDS011;745;48.586;10.032;2023-02-15T15:05:35;27.80;;;18.83;;
1507;SDS011;745;48.586;10.032;2023-02-15T15:14:48;26.67;;;18.75;;
1507;SDS011;745;48.586;10.032;2023-02-15T15:29:06;23.40;;;16.47;;
1507;SDS011;745;48.586;10.032;2023-02-15T15:48:49;15.23;;;11.10;;
1507;SDS011;745;48.586;10.032;2023-02-15T15:53:22;19.40;;;13.13;;
1507;SDS011;745;48.586;10.032;2023-02-15T15:57:59;16.13;;;13.03;;
1507;SDS011;745;48.586;10.032;2023-02-15T16:02:32;19.70;;;12.70;;
1507;SDS011;745;48.586;10.032;2023-02-15T16:11:49;15.80;;;11.60;;
1507;SDS011;745;48.586;10.032;2023-02-15T16:16:22;14.60;;;10.30;;
1507;SDS011;745;48.586;10.032;2023-02-15T16:21:00;13.80;;;9.73;;
1507;SDS011;745;48.586;10.032;2023-02-15T16:25:36;14.13;;;10.57;;
1507;SDS011;745;48.586;10.032;2023-02-15T16:30:28;19.90;;;13.00;;
1507;SDS011;745;48.586;10.032;2023-02-15T16:35:02;22.40;;;14.67;;
1507;SDS011;745;48.586;10.032;2023-02-15T16:39:33;28.33;;;18.30;;
1507;SDS011;745;48.586;10.032;2023-02-15T16:44:13;23.80;;;17.27;;
1507;SDS011;745;48.586;10.032;2023-02-15T16:48:49;25.00;;;16.13;;
1507;SDS011;745;48.586;10.032;2023-02-15T16:53:27;21.40;;;15.23;;
1507;SDS011;745;48.586;10.032;2023-02-15T16:57:59;19.43;;;13.40;;
1507;SDS011;745;48.586;10.032;2023-02-15T17:02:32;14.73;;;12.17;;
1507;SDS011;745;48.586;10.032;2023-02-15T17:11:39;16.33;;;12.13;;
1507;SDS011;745;48.586;10.032;2023-02-15T17:16:22;19.80;;;13.97;;
1507;SDS011;745;48.586;10.032;2023-02-15T17:20:57;16.63;;;12.43;;
1507;SDS011;745;48.586;10.032;2023-02-15T17:25:37;16.20;;;11.90;;
1507;SDS011;745;48.586;10.032;2023-02-15T17:30:13;21.40;;;14.33;;
1507;SDS011;745;48.586;10.032;2023-02-15T17:34:48;27.30;;;19.33;;
1507;SDS011;745;48.586;10.032;2023-02-15T17:39:22;34.13;;;22.73;;
1507;SDS011;745;48.586;10.032;2023-02-15T17:43:52;30.60;;;21.17;;
1507;SDS011;745;48.586;10.032;2023-02-15T17:48:24;29.80;;;21.13;;
1507;SDS011;745;48.586;10.032;2023-02-15T17:53:07;33.20;;;21.13;;
1507;SDS011;745;48.586;10.032;2023-02-15T17:57:38;31.43;;;21.90;;
1507;SDS011;745;48.586;10.032;2023-02-15T18:02:08;32.60;;;21.50;;
1507;SDS011;745;48.586;10.032;2023-02-15T18:06:59;33.87;;;21.53;;
1507;SDS011;745;48.586;10.032;2023-02-15T18:11:47;28.37;;;19.47;;
1507;SDS011;745;48.586;10.032;2023-02-15T18:16:22;28.53;;;20.63;;
1507;SDS011;745;48.586;10.032;2023-02-15T18:20:55;28.03;;;20.50;;
1507;SDS011;745;48.586;10.032;2023-02-15T18:25:25;30.37;;;19.13;;
1507;SDS011;745;48.586;10.032;2023-02-15T18:29:56;28.97;;;19.27;;
1507;SDS011;745;48.586;10.032;2023-02-15T18:34:30;35.03;;;23.33;;
1507;SDS011;745;48.586;10.032;2023-02-15T18:39:01;41.17;;;27.27;;
1507;SDS011;745;48.586;10.032;2023-02-15T18:43:32;55.30;;;33.67;;
1507;SDS011;745;48.586;10.032;2023-02-15T18:48:02;58.97;;;33.87;;
1507;SDS011;745;48.586;10.032;2023-02-15T18:52:35;53.43;;;33.40;;
1507;SDS011;745;48.586;10.032;2023-02-15T18:57:08;55.73;;;32.30;;
1507;SDS011;745;48.586;10.032;2023-02-15T19:01:39;49.17;;;30.30;;
1507;SDS011;745;48.586;10.032;2023-02-15T19:06:11;43.50;;;26.67;;
1507;SDS011;745;48.586;10.032;2023-02-15T19:10:43;38.43;;;24.67;;
1507;SDS011;745;48.586;10.032;2023-02-15T19:15:14;39.73;;;23.67;;
1507;SDS011;745;48.586;10.032;2023-02-15T19:19:52;37.57;;;23.47;;
1507;SDS011;745;48.586;10.032;2023-02-15T19:24:24;39.13;;;23.27;;
1507;SDS011;745;48.586;10.032;2023-02-15T19:29:00;46.43;;;26.93;;
1507;SDS011;745;48.586;10.032;2023-02-15T19:33:31;43.77;;;26.20;;
1507;SDS011;745;48.586;10.032;2023-02-15T19:38:03;41.10;;;27.30;;
1507;SDS011;745;48.586;10.032;2023-02-15T19:42:36;45.80;;;26.67;;
1507;SDS011;745;48.586;10.032;2023-02-15T19:47:08;45.97;;;27.80;;
1507;SDS011;745;48.586;10.032;2023-02-15T19:51:41;42.77;;;27.20;;
1507;SDS011;745;48.586;10.032;2023-02-15T19:56:12;38.40;;;25.30;;
1507;SDS011;745;48.586;10.032;2023-02-15T20:00:52;38.80;;;25.80;;
1507;SDS011;745;48.586;10.032;2023-02-15T20:05:22;32.93;;;22.73;;
1507;SDS011;745;48.586;10.032;2023-02-15T20:09:53;30.33;;;21.30;;
1507;SDS011;745;48.586;10.032;2023-02-15T20:14:23;38.83;;;24.10;;
1507;SDS011;745;48.586;10.032;2023-02-15T20:18:53;46.93;;;27.10;;
1507;SDS011;745;48.586;10.032;2023-02-15T20:27:55;52.37;;;26.73;;
1507;SDS011;745;48.586;10.032;2023-02-15T20:32:28;56.00;;;33.30;;
1507;SDS011;745;48.586;10.032;2023-02-15T20:36:58;57.90;;;34.43;;
1507;SDS011;745;48.586;10.032;2023-02-15T20:41:28;56.87;;;33.90;;
1507;SDS011;745;48.586;10.032;2023-02-15T20:46:05;51.10;;;32.27;;
1507;SDS011;745;48.586;10.032;2023-02-15T20:50:36;57.73;;;32.67;;
1507;SDS011;745;48.586;10.032;2023-02-15T20:55:11;65.60;;;34.37;;
1507;SDS011;745;48.586;10.032;2023-02-15T20:59:43;63.60;;;33.40;;
1507;SDS011;745;48.586;10.032;2023-02-15T21:04:25;59.03;;;32.60;;
1507;SDS011;745;48.586;10.032;2023-02-15T21:08:59;59.17;;;32.50;;
1507;SDS011;745;48.586;10.032;2023-02-15T21:13:31;58.90;;;34.37;;
1507;SDS011;745;48.586;10.032;2023-02-15T21:18:06;63.10;;;34.87;;
1507;SDS011;745;48.586;10.032;2023-02-15T21:22:41;67.50;;;37.23;;
1507;SDS011;745;48.586;10.032;2023-02-15T21:27:12;63.70;;;36.00;;
1507;SDS011;745;48.586;10.032;2023-02-15T21:31:43;79.80;;;40.10;;
1507;SDS011;745;48.586;10.032;2023-02-15T21:36:15;82.73;;;40.30;;
1507;SDS011;745;48.586;10.032;2023-02-15T21:40:48;68.60;;;40.00;;
1507;SDS011;745;48.586;10.032;2023-02-15T21:45:19;64.23;;;37.73;;
1507;SDS011;745;48.586;10.032;2023-02-15T21:50:11;83.13;;;39.97;;
1507;SDS011;745;48.586;10.032;2023-02-15T21:55:11;70.77;;;38.53;;
1507;SDS011;745;48.586;10.032;2023-02-15T21:59:43;78.77;;;42.40;;
1507;SDS011;745;48.586;10.032;2023-02-15T22:04:14;94.53;;;43.73;;
1507;SDS011;745;48.586;10.032;2023-02-15T22:08:50;92.60;;;45.93;;
1507;SDS011;745;48.586;10.032;2023-02-15T22:13:25;101.50;;;47.73;;
1507;SDS011;745;48.586;10.032;2023-02-15T22:18:01;89.97;;;44.50;;
1507;SDS011;745;48.586;10.032;2023-02-15T22:22:31;88.13;;;42.90;;
1507;SDS011;745;48.586;10.032;2023-02-15T22:27:03;82.67;;;40.40;;
1507;SDS011;745;48.586;10.032;2023-02-15T22:31:34;89.50;;;45.00;;
1507;SDS011;745;48.586;10.032;2023-02-15T22:36:05;85.73;;;42.90;;
1507;SDS011;745;48.586;10.032;2023-02-15T22:40:35;77.60;;;41.57;;
1507;SDS011;745;48.586;10.032;2023-02-15T22:45:08;69.27;;;36.60;;
1507;SDS011;745;48.586;10.032;2023-02-15T22:49:46;67.57;;;35.83;;
1507;SDS011;745;48.586;10.032;2023-02-15T22:54:16;58.90;;;34.43;;
1507;SDS011;745;48.586;10.032;2023-02-15T22:58:47;71.60;;;37.93;;
1507;SDS011;745;48.586;10.032;2023-02-15T23:03:20;81.07;;;42.57;;
1507;SDS011;745;48.586;10.032;2023-02-15T23:07:52;84.83;;;41.10;;
1507;SDS011;745;48.586;10.032;2023-02-15T23:12:27;80.30;;;42.70;;
1507;SDS011;745;48.586;10.032;2023-02-15T23:17:19;75.67;;;40.73;;
1507;SDS011;745;48.586;10.032;2023-02-15T23:21:49;88.43;;;43.77;;
1507;SDS011;745;48.586;10.032;2023-02-15T23:26:21;111.40;;;51.77;;
1507;SDS011;745;48.586;10.032;2023-02-15T23:30:54;93.70;;;48.83;;
1507;SDS011;745;48.586;10.032;2023-02-15T23:35:25;87.13;;;44.17;;
1507;SDS011;745;48.586;10.032;2023-02-15T23:39:55;83.43;;;42.00;;
1507;SDS011;745;48.586;10.032;2023-02-15T23:44:44;68.97;;;37.90;;
1507;SDS011;745;48.586;10.032;2023-02-15T23:49:17;72.90;;;38.03;;
1507;SDS011;745;48.586;10.032;2023-02-15T23:53:48;59.83;;;33.97;;
1507;SDS011;745;48.586;10.032;2023-02-15T23:58:19;51.57;;;29.90;;
